sensor_id;sensor_type;location;lat;lon;timestamp;pressure;altitude;pressure_sealevel;temperature;humidity
30949;BME280;17637;51.984;21.208;2022-09-09T00:01:28;100062.38;;;11.82;75.76
30949;BME280;17637;51.984;21.208;2022-09-09T00:04:13;100061.84;;;11.74;76.24
30949;BME280;17637;51.984;21.208;2022-09-09T00:13:05;99818.75;;;10.36;76.71
30949;BME280;17637;51.984;21.208;2022-09-09T00:15:42;99631.03;;;9.13;76.57
30949;BME280;17637;51.984;21.208;2022-09-09T00:23:39;99941.72;;;10.80;76.03
30949;BME280;17637;51.984;21.208;2022-09-09T00:26:34;100049.47;;;11.57;76.33
30949;BME280;17637;51.984;21.208;2022-09-09T00:31:43;99623.38;;;9.31;74.74
30949;BME280;17637;51.984;21.208;2022-09-09T00:34:18;99542.06;;;8.74;75.31
30949;BME280;17637;51.984;21.208;2022-09-09T00:36:48;100073.59;;;11.86;75.16
30949;BME280;17637;51.984;21.208;2022-09-09T00:39:32;99967.47;;;11.33;75.74
30949;BME280;17637;51.984;21.208;2022-09-09T00:44:59;99759.41;;;10.14;75.26
30949;BME280;17637;51.984;21.208;2022-09-09T00:58:28;99462.25;;;8.23;76.40
30949;BME280;17637;51.984;21.208;2022-09-09T01:01:08;100032.03;;;11.77;75.48
30949;BME280;17637;51.984;21.208;2022-09-09T01:06:15;100030.34;;;12.15;74.40
30949;BME280;17637;51.984;21.208;2022-09-09T01:11:29;99999.75;;;11.54;75.91
30949;BME280;17637;51.984;21.208;2022-09-09T01:14:50;99797.25;;;10.28;76.19
30949;BME280;17637;51.984;21.208;2022-09-09T01:16:57;100028.75;;;11.92;75.47
30949;BME280;17637;51.984;21.208;2022-09-09T01:23:08;100028.88;;;11.89;76.10
30949;BME280;17637;51.984;21.208;2022-09-09T01:28:45;100024.00;;;11.59;77.40
30949;BME280;17637;51.984;21.208;2022-09-09T01:31:17;100023.00;;;11.82;76.95
30949;BME280;17637;51.984;21.208;2022-09-09T01:33:46;99923.41;;;11.41;76.46
30949;BME280;17637;51.984;21.208;2022-09-09T01:36:34;99905.78;;;11.04;76.52
30949;BME280;17637;51.984;21.208;2022-09-09T01:39:04;99815.69;;;10.67;76.44
30949;BME280;17637;51.984;21.208;2022-09-09T01:41:31;99838.53;;;10.84;75.80
30949;BME280;17637;51.984;21.208;2022-09-09T01:43:58;99546.06;;;9.05;75.74
30949;BME280;17637;51.984;21.208;2022-09-09T01:46:28;99861.25;;;11.04;75.64
30949;BME280;17637;51.984;21.208;2022-09-09T01:48:57;99718.72;;;10.29;75.38
30949;BME280;17637;51.984;21.208;2022-09-09T01:51:25;99629.31;;;9.34;76.75
30949;BME280;17637;51.984;21.208;2022-09-09T01:53:52;99309.47;;;7.73;75.64
30949;BME280;17637;51.984;21.208;2022-09-09T02:04:47;99834.09;;;10.86;75.52
30949;BME280;17637;51.984;21.208;2022-09-09T02:07:40;100022.34;;;11.98;77.07
30949;BME280;17637;51.984;21.208;2022-09-09T02:10:21;99938.22;;;11.42;77.05
30949;BME280;17637;51.984;21.208;2022-09-09T02:12:55;99947.00;;;11.62;76.48
30949;BME280;17637;51.984;21.208;2022-09-09T02:17:58;99989.81;;;11.62;77.12
30949;BME280;17637;51.984;21.208;2022-09-09T02:20:29;100021.31;;;12.02;76.74
30949;BME280;17637;51.984;21.208;2022-09-09T02:23:00;99438.03;;;8.43;76.91
30949;BME280;17637;51.984;21.208;2022-09-09T02:25:29;99634.44;;;9.80;76.29
30949;BME280;17637;51.984;21.208;2022-09-09T02:27:56;100017.00;;;12.01;76.86
30949;BME280;17637;51.984;21.208;2022-09-09T02:30:28;99506.59;;;8.90;76.48
30949;BME280;17637;51.984;21.208;2022-09-09T02:32:59;99575.06;;;8.97;77.67
30949;BME280;17637;51.984;21.208;2022-09-09T02:35:29;99597.00;;;9.37;77.56
30949;BME280;17637;51.984;21.208;2022-09-09T02:38:02;99718.16;;;10.21;77.53
30949;BME280;17637;51.984;21.208;2022-09-09T02:40:30;100025.13;;;11.94;77.59
30949;BME280;17637;51.984;21.208;2022-09-09T02:42:57;99538.75;;;9.13;77.21
30949;BME280;17637;51.984;21.208;2022-09-09T02:45:51;99960.56;;;11.51;76.82
30949;BME280;17637;51.984;21.208;2022-09-09T02:48:31;99683.88;;;9.86;77.31
30949;BME280;17637;51.984;21.208;2022-09-09T02:51:06;100028.13;;;11.85;78.03
30949;BME280;17637;51.984;21.208;2022-09-09T02:56:21;99973.22;;;11.41;79.11
30949;BME280;17637;51.984;21.208;2022-09-09T02:58:50;100016.47;;;11.92;78.73
30949;BME280;17637;51.984;21.208;2022-09-09T03:01:18;99619.19;;;9.27;78.96
30949;BME280;17637;51.984;21.208;2022-09-09T03:03:45;100018.19;;;11.93;78.52
30949;BME280;17637;51.984;21.208;2022-09-09T03:06:13;99880.53;;;11.03;78.62
30949;BME280;17637;51.984;21.208;2022-09-09T03:08:41;99925.63;;;11.30;79.32
30949;BME280;17637;51.984;21.208;2022-09-09T03:11:16;99770.22;;;10.49;78.55
30949;BME280;17637;51.984;21.208;2022-09-09T03:13:43;99581.03;;;9.23;78.62
30949;BME280;17637;51.984;21.208;2022-09-09T03:16:10;99677.38;;;9.74;78.49
30949;BME280;17637;51.984;21.208;2022-09-09T03:18:37;99986.09;;;11.66;79.72
30949;BME280;17637;51.984;21.208;2022-09-09T03:21:04;99951.25;;;11.64;78.74
30949;BME280;17637;51.984;21.208;2022-09-09T03:23:31;99599.28;;;9.24;79.68
30949;BME280;17637;51.984;21.208;2022-09-09T03:25:58;99818.66;;;10.59;79.63
30949;BME280;17637;51.984;21.208;2022-09-09T03:28:25;99918.84;;;11.26;79.59
30949;BME280;17637;51.984;21.208;2022-09-09T03:31:02;99898.09;;;11.21;79.97
30949;BME280;17637;51.984;21.208;2022-09-09T03:33:30;100022.22;;;11.80;79.68
30949;BME280;17637;51.984;21.208;2022-09-09T03:35:58;99590.94;;;9.14;79.40
30949;BME280;17637;51.984;21.208;2022-09-09T03:38:25;100012.78;;;11.97;79.01
30949;BME280;17637;51.984;21.208;2022-09-09T03:40:53;99836.97;;;10.80;79.41
30949;BME280;17637;51.984;21.208;2022-09-09T03:43:25;99988.53;;;11.71;79.05
30949;BME280;17637;51.984;21.208;2022-09-09T03:45:53;100013.19;;;11.87;79.59
30949;BME280;17637;51.984;21.208;2022-09-09T03:48:24;100010.91;;;12.00;79.78
30949;BME280;17637;51.984;21.208;2022-09-09T03:50:53;99899.63;;;11.46;78.49
30949;BME280;17637;51.984;21.208;2022-09-09T03:53:22;99972.13;;;11.86;78.50
30949;BME280;17637;51.984;21.208;2022-09-09T03:55:51;100022.59;;;12.12;78.55
30949;BME280;17637;51.984;21.208;2022-09-09T03:58:22;100015.81;;;12.08;78.72
30949;BME280;17637;51.984;21.208;2022-09-09T04:01:07;99613.72;;;9.75;78.17
30949;BME280;17637;51.984;21.208;2022-09-09T04:03:35;99873.97;;;11.13;78.73
30949;BME280;17637;51.984;21.208;2022-09-09T04:06:03;100017.91;;;12.19;77.86
30949;BME280;17637;51.984;21.208;2022-09-09T04:08:31;99692.13;;;10.18;77.89
30949;BME280;17637;51.984;21.208;2022-09-09T04:10:59;99962.53;;;11.85;78.37
30949;BME280;17637;51.984;21.208;2022-09-09T04:13:28;100028.19;;;12.04;78.92
30949;BME280;17637;51.984;21.208;2022-09-09T04:15:57;99840.13;;;10.88;79.47
30949;BME280;17637;51.984;21.208;2022-09-09T04:18:25;100012.44;;;12.04;79.06
30949;BME280;17637;51.984;21.208;2022-09-09T04:20:55;99516.47;;;9.04;78.54
30949;BME280;17637;51.984;21.208;2022-09-09T04:23:26;100022.78;;;12.07;78.91
30949;BME280;17637;51.984;21.208;2022-09-09T04:25:56;100014.22;;;12.04;79.97
30949;BME280;17637;51.984;21.208;2022-09-09T04:28:26;99994.06;;;11.65;79.33
30949;BME280;17637;51.984;21.208;2022-09-09T04:30:53;99852.81;;;11.18;78.95
30949;BME280;17637;51.984;21.208;2022-09-09T04:33:20;99919.19;;;11.58;78.38
30949;BME280;17637;51.984;21.208;2022-09-09T04:35:49;100018.56;;;12.24;78.96
30949;BME280;17637;51.984;21.208;2022-09-09T04:38:17;100018.28;;;12.11;79.04
30949;BME280;17637;51.984;21.208;2022-09-09T04:40:48;99853.19;;;11.08;78.90
30949;BME280;17637;51.984;21.208;2022-09-09T04:43:15;100006.31;;;12.24;79.22
30949;BME280;17637;51.984;21.208;2022-09-09T04:45:43;99882.25;;;11.43;78.98
30949;BME280;17637;51.984;21.208;2022-09-09T04:48:10;100018.84;;;11.99;80.29
30949;BME280;17637;51.984;21.208;2022-09-09T04:50:37;99791.41;;;10.43;80.25
30949;BME280;17637;51.984;21.208;2022-09-09T04:53:05;99971.47;;;11.81;79.96
30949;BME280;17637;51.984;21.208;2022-09-09T04:55:32;100021.81;;;12.29;79.06
30949;BME280;17637;51.984;21.208;2022-09-09T04:58:05;99735.13;;;10.53;79.34
30949;BME280;17637;51.984;21.208;2022-09-09T05:00:34;100018.16;;;12.33;78.91
30949;BME280;17637;51.984;21.208;2022-09-09T05:03:04;100022.06;;;12.24;79.15
30949;BME280;17637;51.984;21.208;2022-09-09T05:05:35;100019.88;;;12.34;79.00
30949;BME280;17637;51.984;21.208;2022-09-09T05:08:06;100032.13;;;12.33;79.16
30949;BME280;17637;51.984;21.208;2022-09-09T05:10:36;100045.38;;;12.30;78.85
30949;BME280;17637;51.984;21.208;2022-09-09T05:13:04;99914.81;;;11.58;79.64
30949;BME280;17637;51.984;21.208;2022-09-09T05:15:31;99967.03;;;11.63;79.74
30949;BME280;17637;51.984;21.208;2022-09-09T05:17:59;100049.84;;;12.28;79.73
30949;BME280;17637;51.984;21.208;2022-09-09T05:20:27;100041.88;;;12.31;79.78
30949;BME280;17637;51.984;21.208;2022-09-09T05:22:55;100035.88;;;12.47;79.29
30949;BME280;17637;51.984;21.208;2022-09-09T05:25:23;99977.50;;;12.04;79.96
30949;BME280;17637;51.984;21.208;2022-09-09T05:27:53;100034.31;;;12.43;79.70
30949;BME280;17637;51.984;21.208;2022-09-09T05:30:21;98909.03;;;5.60;78.18
30949;BME280;17637;51.984;21.208;2022-09-09T05:32:51;99845.47;;;11.26;78.97
30949;BME280;17637;51.984;21.208;2022-09-09T05:35:18;100000.13;;;12.25;78.94
30949;BME280;17637;51.984;21.208;2022-09-09T05:37:45;99592.00;;;9.73;79.01
30949;BME280;17637;51.984;21.208;2022-09-09T05:40:12;100046.25;;;12.31;79.46
30949;BME280;17637;51.984;21.208;2022-09-09T05:42:40;100056.53;;;12.35;80.36
30949;BME280;17637;51.984;21.208;2022-09-09T05:45:08;99871.91;;;11.40;80.08
30949;BME280;17637;51.984;21.208;2022-09-09T05:47:36;100041.19;;;12.45;79.71
30949;BME280;17637;51.984;21.208;2022-09-09T05:50:04;100036.88;;;12.44;80.30
30949;BME280;17637;51.984;21.208;2022-09-09T05:52:31;100050.06;;;12.62;79.78
30949;BME280;17637;51.984;21.208;2022-09-09T05:54:59;99731.06;;;10.66;79.57
30949;BME280;17637;51.984;21.208;2022-09-09T05:57:26;99874.41;;;11.62;78.76
30949;BME280;17637;51.984;21.208;2022-09-09T05:59:53;99948.53;;;11.66;80.30
30949;BME280;17637;51.984;21.208;2022-09-09T06:02:20;99755.66;;;10.83;79.13
30949;BME280;17637;51.984;21.208;2022-09-09T06:04:47;99999.41;;;12.41;78.76
30949;BME280;17637;51.984;21.208;2022-09-09T06:07:14;99791.75;;;11.16;78.91
30949;BME280;17637;51.984;21.208;2022-09-09T06:09:41;99667.34;;;10.47;78.25
30949;BME280;17637;51.984;21.208;2022-09-09T06:12:08;100015.47;;;12.53;78.17
30949;BME280;17637;51.984;21.208;2022-09-09T06:14:35;99881.22;;;11.85;78.67
30949;BME280;17637;51.984;21.208;2022-09-09T06:17:03;100025.63;;;12.78;78.36
30949;BME280;17637;51.984;21.208;2022-09-09T06:19:37;99939.75;;;12.25;78.14
30949;BME280;17637;51.984;21.208;2022-09-09T06:22:04;99882.16;;;11.84;77.42
30949;BME280;17637;51.984;21.208;2022-09-09T06:24:32;99760.19;;;11.19;77.95
30949;BME280;17637;51.984;21.208;2022-09-09T06:26:59;100000.81;;;12.48;78.72
30949;BME280;17637;51.984;21.208;2022-09-09T06:29:26;99716.66;;;10.77;78.11
30949;BME280;17637;51.984;21.208;2022-09-09T06:31:53;99561.56;;;9.72;78.65
30949;BME280;17637;51.984;21.208;2022-09-09T06:34:21;99844.84;;;11.59;78.75
30949;BME280;17637;51.984;21.208;2022-09-09T06:36:48;99523.06;;;9.35;78.74
30949;BME280;17637;51.984;21.208;2022-09-09T06:39:15;99728.28;;;10.90;77.67
30949;BME280;17637;51.984;21.208;2022-09-09T06:41:42;100067.44;;;13.02;78.09
30949;BME280;17637;51.984;21.208;2022-09-09T06:44:09;99812.03;;;11.31;77.93
30949;BME280;17637;51.984;21.208;2022-09-09T06:46:38;99197.13;;;7.81;77.47
30949;BME280;17637;51.984;21.208;2022-09-09T06:49:08;99856.91;;;11.82;77.41
30949;BME280;17637;51.984;21.208;2022-09-09T06:51:36;99975.97;;;12.55;77.92
30949;BME280;17637;51.984;21.208;2022-09-09T06:54:11;100027.22;;;13.00;77.73
30949;BME280;17637;51.984;21.208;2022-09-09T06:56:40;99836.72;;;11.84;77.37
30949;BME280;17637;51.984;21.208;2022-09-09T06:59:09;99668.72;;;10.35;78.25
30949;BME280;17637;51.984;21.208;2022-09-09T07:01:38;100085.94;;;13.18;78.71
30949;BME280;17637;51.984;21.208;2022-09-09T07:04:07;100083.84;;;13.25;77.43
30949;BME280;17637;51.984;21.208;2022-09-09T07:06:37;99964.78;;;12.51;77.23
30949;BME280;17637;51.984;21.208;2022-09-09T07:09:06;100094.34;;;13.43;76.92
30949;BME280;17637;51.984;21.208;2022-09-09T07:11:48;100008.44;;;12.90;76.73
30949;BME280;17637;51.984;21.208;2022-09-09T07:14:15;100091.66;;;13.45;77.04
30949;BME280;17637;51.984;21.208;2022-09-09T07:16:44;100091.50;;;13.31;77.34
30949;BME280;17637;51.984;21.208;2022-09-09T07:19:13;99821.41;;;11.56;77.69
30949;BME280;17637;51.984;21.208;2022-09-09T07:21:41;100070.25;;;13.16;77.10
30949;BME280;17637;51.984;21.208;2022-09-09T07:24:09;99709.03;;;11.29;76.75
30949;BME280;17637;51.984;21.208;2022-09-09T07:26:39;100106.38;;;13.67;76.77
30949;BME280;17637;51.984;21.208;2022-09-09T07:29:08;100096.53;;;13.70;76.40
30949;BME280;17637;51.984;21.208;2022-09-09T07:31:37;100005.59;;;13.12;76.09
30949;BME280;17637;51.984;21.208;2022-09-09T07:34:04;100106.91;;;13.73;76.40
30949;BME280;17637;51.984;21.208;2022-09-09T07:36:39;100109.53;;;13.73;76.44
30949;BME280;17637;51.984;21.208;2022-09-09T07:39:09;100118.06;;;13.78;75.81
30949;BME280;17637;51.984;21.208;2022-09-09T07:41:41;99838.31;;;11.48;75.84
30949;BME280;17637;51.984;21.208;2022-09-09T07:44:15;100121.53;;;13.79;76.31
30949;BME280;17637;51.984;21.208;2022-09-09T07:46:43;99902.00;;;12.28;76.17
30949;BME280;17637;51.984;21.208;2022-09-09T07:49:12;100039.75;;;13.12;76.26
30949;BME280;17637;51.984;21.208;2022-09-09T07:51:42;99752.66;;;10.92;76.98
30949;BME280;17637;51.984;21.208;2022-09-09T07:54:15;100090.16;;;13.39;77.23
30949;BME280;17637;51.984;21.208;2022-09-09T07:56:42;100156.31;;;13.85;77.24
30949;BME280;17637;51.984;21.208;2022-09-09T07:59:10;100136.25;;;13.83;76.70
30949;BME280;17637;51.984;21.208;2022-09-09T08:01:40;100074.41;;;13.57;75.91
30949;BME280;17637;51.984;21.208;2022-09-09T08:04:13;100006.97;;;13.02;76.16
30949;BME280;17637;51.984;21.208;2022-09-09T08:06:48;100127.09;;;13.73;77.20
30949;BME280;17637;51.984;21.208;2022-09-09T08:09:16;99897.13;;;12.20;77.51
30949;BME280;17637;51.984;21.208;2022-09-09T08:11:43;99856.78;;;12.04;77.65
30949;BME280;17637;51.984;21.208;2022-09-09T08:14:11;99925.00;;;12.59;76.24
30949;BME280;17637;51.984;21.208;2022-09-09T08:16:41;100148.78;;;13.95;77.10
30949;BME280;17637;51.984;21.208;2022-09-09T08:19:08;99903.44;;;12.52;76.22
30949;BME280;17637;51.984;21.208;2022-09-09T08:21:38;100146.31;;;14.10;75.96
30949;BME280;17637;51.984;21.208;2022-09-09T08:24:08;100011.44;;;13.36;76.00
30949;BME280;17637;51.984;21.208;2022-09-09T08:26:39;100137.59;;;14.25;75.70
30949;BME280;17637;51.984;21.208;2022-09-09T08:29:10;99977.47;;;13.32;75.50
30949;BME280;17637;51.984;21.208;2022-09-09T08:31:42;99844.13;;;12.48;75.50
30949;BME280;17637;51.984;21.208;2022-09-09T08:34:13;100167.56;;;14.40;75.00
30949;BME280;17637;51.984;21.208;2022-09-09T08:36:43;100148.03;;;14.44;75.31
30949;BME280;17637;51.984;21.208;2022-09-09T08:39:12;100110.91;;;14.15;75.80
30949;BME280;17637;51.984;21.208;2022-09-09T08:55:48;100160.34;;;14.61;76.18
30949;BME280;17637;51.984;21.208;2022-09-09T08:58:30;99854.53;;;12.67;75.53
30949;BME280;17637;51.984;21.208;2022-09-09T09:09:57;100024.91;;;13.48;75.95
30949;BME280;17637;51.984;21.208;2022-09-09T09:12:43;100173.13;;;14.51;75.71
30949;BME280;17637;51.984;21.208;2022-09-09T09:15:14;100169.56;;;14.35;77.34
30949;BME280;17637;51.984;21.208;2022-09-09T09:17:43;99764.94;;;12.04;76.65
30949;BME280;17637;51.984;21.208;2022-09-09T09:20:14;100171.19;;;14.55;76.40
30949;BME280;17637;51.984;21.208;2022-09-09T09:22:48;100175.19;;;14.62;76.62
30949;BME280;17637;51.984;21.208;2022-09-09T09:25:20;99973.78;;;13.36;76.01
30949;BME280;17637;51.984;21.208;2022-09-09T09:28:01;100182.97;;;14.65;76.54
30949;BME280;17637;51.984;21.208;2022-09-09T09:30:39;99992.34;;;13.50;76.12
30949;BME280;17637;51.984;21.208;2022-09-09T09:35:53;100064.66;;;13.76;76.13
30949;BME280;17637;51.984;21.208;2022-09-09T09:38:23;100184.81;;;14.63;75.54
30949;BME280;17637;51.984;21.208;2022-09-09T09:41:11;100167.59;;;14.73;76.46
30949;BME280;17637;51.984;21.208;2022-09-09T09:43:40;100187.06;;;14.53;76.88
30949;BME280;17637;51.984;21.208;2022-09-09T09:46:24;99803.25;;;12.25;76.86
30949;BME280;17637;51.984;21.208;2022-09-09T09:49:00;99967.31;;;13.24;77.19
30949;BME280;17637;51.984;21.208;2022-09-09T09:51:29;100181.13;;;14.83;76.67
30949;BME280;17637;51.984;21.208;2022-09-09T09:56:43;100045.19;;;13.96;75.43
30949;BME280;17637;51.984;21.208;2022-09-09T10:04:44;100190.81;;;14.98;75.75
30949;BME280;17637;51.984;21.208;2022-09-09T10:07:18;100192.84;;;14.93;75.96
30949;BME280;17637;51.984;21.208;2022-09-09T10:09:53;99838.03;;;12.65;75.99
30949;BME280;17637;51.984;21.208;2022-09-09T10:12:30;99903.72;;;12.83;76.26
30949;BME280;17637;51.984;21.208;2022-09-09T10:22:35;100038.56;;;13.89;77.12
30949;BME280;17637;51.984;21.208;2022-09-09T10:33:28;100021.78;;;13.74;75.59
30949;BME280;17637;51.984;21.208;2022-09-09T10:36:21;100230.31;;;15.16;75.35
30949;BME280;17637;51.984;21.208;2022-09-09T10:39:01;100042.72;;;13.93;75.09
30949;BME280;17637;51.984;21.208;2022-09-09T10:49:52;100240.84;;;15.00;76.97
30949;BME280;17637;51.984;21.208;2022-09-09T10:52:41;100197.72;;;14.85;76.16
30949;BME280;17637;51.984;21.208;2022-09-09T10:55:18;100268.41;;;15.10;75.84
30949;BME280;17637;51.984;21.208;2022-09-09T10:57:48;100249.47;;;15.19;75.45
30949;BME280;17637;51.984;21.208;2022-09-09T11:00:19;100034.69;;;13.79;75.64
30949;BME280;17637;51.984;21.208;2022-09-09T11:02:58;100253.66;;;15.23;76.46
30949;BME280;17637;51.984;21.208;2022-09-09T11:05:51;100245.81;;;15.38;75.58
30949;BME280;17637;51.984;21.208;2022-09-09T11:08:23;100267.25;;;15.31;74.94
30949;BME280;17637;51.984;21.208;2022-09-09T11:19:03;100135.28;;;14.52;76.00
30949;BME280;17637;51.984;21.208;2022-09-09T11:21:38;100253.88;;;15.19;76.42
30949;BME280;17637;51.984;21.208;2022-09-09T11:24:15;100254.84;;;15.33;76.26
30949;BME280;17637;51.984;21.208;2022-09-09T11:26:54;100126.47;;;14.53;76.09
30949;BME280;17637;51.984;21.208;2022-09-09T11:38:26;100267.44;;;15.28;76.18
30949;BME280;17637;51.984;21.208;2022-09-09T11:41:07;100175.72;;;14.18;78.00
30949;BME280;17637;51.984;21.208;2022-09-09T11:43:41;100058.34;;;13.96;76.76
30949;BME280;17637;51.984;21.208;2022-09-09T11:46:10;100236.59;;;14.97;76.29
30949;BME280;17637;51.984;21.208;2022-09-09T11:48:57;100264.03;;;15.26;76.53
30949;BME280;17637;51.984;21.208;2022-09-09T11:51:27;100279.50;;;15.17;76.62
30949;BME280;17637;51.984;21.208;2022-09-09T11:53:57;100266.91;;;15.06;76.97
30949;BME280;17637;51.984;21.208;2022-09-09T11:56:45;99072.59;;;7.67;77.28
30949;BME280;17637;51.984;21.208;2022-09-09T11:59:27;100148.69;;;14.32;77.67
30949;BME280;17637;51.984;21.208;2022-09-09T12:04:32;100116.53;;;14.25;77.09
30949;BME280;17637;51.984;21.208;2022-09-09T12:10:19;100136.78;;;14.40;77.78
30949;BME280;17637;51.984;21.208;2022-09-09T12:12:47;100128.75;;;14.26;76.74
30949;BME280;17637;51.984;21.208;2022-09-09T12:15:22;100280.09;;;15.22;77.90
30949;BME280;17637;51.984;21.208;2022-09-09T12:17:52;100019.84;;;13.60;77.19
30949;BME280;17637;51.984;21.208;2022-09-09T12:20:21;100280.03;;;15.23;77.03
30949;BME280;17637;51.984;21.208;2022-09-09T12:28:20;100288.25;;;15.17;76.65
30949;BME280;17637;51.984;21.208;2022-09-09T12:30:55;100285.34;;;15.06;77.51
30949;BME280;17637;51.984;21.208;2022-09-09T12:33:24;100176.03;;;14.29;77.58
30949;BME280;17637;51.984;21.208;2022-09-09T12:35:55;100272.34;;;14.85;78.60
30949;BME280;17637;51.984;21.208;2022-09-09T12:38:32;100201.66;;;14.25;78.54
30949;BME280;17637;51.984;21.208;2022-09-09T12:41:00;100227.00;;;14.63;78.11
30949;BME280;17637;51.984;21.208;2022-09-09T12:43:27;100272.41;;;15.01;77.80
30949;BME280;17637;51.984;21.208;2022-09-09T12:46:00;100220.94;;;14.43;78.98
30949;BME280;17637;51.984;21.208;2022-09-09T12:48:36;100274.31;;;14.82;78.98
30949;BME280;17637;51.984;21.208;2022-09-09T12:51:07;100252.06;;;14.53;79.39
30949;BME280;17637;51.984;21.208;2022-09-09T12:53:44;100104.25;;;13.73;78.66
30949;BME280;17637;51.984;21.208;2022-09-09T12:56:20;100084.16;;;13.55;78.58
30949;BME280;17637;51.984;21.208;2022-09-09T12:58:50;100059.69;;;13.70;78.57
30949;BME280;17637;51.984;21.208;2022-09-09T13:01:29;99479.50;;;10.14;78.20
30949;BME280;17637;51.984;21.208;2022-09-09T13:03:59;99790.22;;;11.87;77.81
30949;BME280;17637;51.984;21.208;2022-09-09T13:06:31;100101.78;;;14.05;77.38
30949;BME280;17637;51.984;21.208;2022-09-09T13:09:00;100274.81;;;14.88;77.72
30949;BME280;17637;51.984;21.208;2022-09-09T13:11:31;100273.81;;;14.91;78.16
30949;BME280;17637;51.984;21.208;2022-09-09T13:14:02;100267.97;;;14.68;78.58
30949;BME280;17637;51.984;21.208;2022-09-09T13:16:31;99718.00;;;11.42;77.79
30949;BME280;17637;51.984;21.208;2022-09-09T13:19:14;100271.09;;;14.93;77.86
30949;BME280;17637;51.984;21.208;2022-09-09T13:21:42;100261.84;;;14.51;78.64
30949;BME280;17637;51.984;21.208;2022-09-09T13:26:59;100263.78;;;14.82;78.80
30949;BME280;17637;51.984;21.208;2022-09-09T13:29:29;100006.22;;;13.17;78.54
30949;BME280;17637;51.984;21.208;2022-09-09T13:32:16;100267.09;;;14.85;78.54
30949;BME280;17637;51.984;21.208;2022-09-09T13:37:24;100138.16;;;13.97;78.28
30949;BME280;17637;51.984;21.208;2022-09-09T13:39:54;99664.56;;;11.08;77.87
30949;BME280;17637;51.984;21.208;2022-09-09T13:42:28;100270.38;;;14.73;78.83
30949;BME280;17637;51.984;21.208;2022-09-09T13:44:56;99930.66;;;12.86;78.69
30949;BME280;17637;51.984;21.208;2022-09-09T13:47:31;100261.56;;;14.90;78.17
30949;BME280;17637;51.984;21.208;2022-09-09T13:52:53;100070.28;;;13.51;79.48
30949;BME280;17637;51.984;21.208;2022-09-09T13:55:22;100270.66;;;14.67;79.33
30949;BME280;17637;51.984;21.208;2022-09-09T13:58:01;100265.16;;;14.89;79.02
30949;BME280;17637;51.984;21.208;2022-09-09T14:00:30;100135.00;;;14.07;78.44
30949;BME280;17637;51.984;21.208;2022-09-09T14:02:57;100099.34;;;14.18;78.38
30949;BME280;17637;51.984;21.208;2022-09-09T14:05:24;100073.59;;;13.90;78.02
30949;BME280;17637;51.984;21.208;2022-09-09T14:07:52;100080.78;;;14.03;78.28
30949;BME280;17637;51.984;21.208;2022-09-09T14:10:19;100134.03;;;14.26;78.60
30949;BME280;17637;51.984;21.208;2022-09-09T14:12:46;100087.31;;;13.96;78.02
30949;BME280;17637;51.984;21.208;2022-09-09T14:15:13;99969.19;;;13.22;77.74
30949;BME280;17637;51.984;21.208;2022-09-09T14:17:41;100151.72;;;14.24;77.52
30949;BME280;17637;51.984;21.208;2022-09-09T14:20:09;100119.84;;;14.28;77.95
30949;BME280;17637;51.984;21.208;2022-09-09T14:22:38;100220.09;;;14.94;77.55
30949;BME280;17637;51.984;21.208;2022-09-09T14:25:08;99902.88;;;12.99;76.64
30949;BME280;17637;51.984;21.208;2022-09-09T14:27:35;100179.16;;;14.36;76.28
30949;BME280;17637;51.984;21.208;2022-09-09T14:30:02;99851.78;;;12.70;75.68
30949;BME280;17637;51.984;21.208;2022-09-09T14:32:29;100156.53;;;14.49;76.15
30949;BME280;17637;51.984;21.208;2022-09-09T14:34:56;99989.22;;;13.42;76.21
30949;BME280;17637;51.984;21.208;2022-09-09T14:37:23;100233.19;;;14.95;76.41
30949;BME280;17637;51.984;21.208;2022-09-09T14:39:50;100232.81;;;14.85;76.54
30949;BME280;17637;51.984;21.208;2022-09-09T14:42:18;99515.41;;;10.50;76.34
30949;BME280;17637;51.984;21.208;2022-09-09T14:44:45;100169.44;;;14.55;77.14
30949;BME280;17637;51.984;21.208;2022-09-09T14:47:12;98913.06;;;6.80;75.86
30949;BME280;17637;51.984;21.208;2022-09-09T14:49:39;99719.78;;;11.97;75.59
30949;BME280;17637;51.984;21.208;2022-09-09T14:52:13;100176.97;;;14.95;76.14
30949;BME280;17637;51.984;21.208;2022-09-09T14:54:40;100147.94;;;14.63;75.25
30949;BME280;17637;51.984;21.208;2022-09-09T14:57:07;100151.28;;;14.82;75.11
30949;BME280;17637;51.984;21.208;2022-09-09T14:59:34;100212.34;;;15.22;75.12
30949;BME280;17637;51.984;21.208;2022-09-09T15:02:01;100215.53;;;15.13;75.66
30949;BME280;17637;51.984;21.208;2022-09-09T15:04:31;100269.31;;;15.42;76.08
30949;BME280;17637;51.984;21.208;2022-09-09T15:06:58;100116.91;;;14.35;76.62
30949;BME280;17637;51.984;21.208;2022-09-09T15:09:25;100162.00;;;14.79;76.17
30949;BME280;17637;51.984;21.208;2022-09-09T15:11:52;100078.19;;;13.86;76.00
30949;BME280;17637;51.984;21.208;2022-09-09T15:14:19;100106.50;;;13.98;77.01
30949;BME280;17637;51.984;21.208;2022-09-09T15:16:50;100017.59;;;13.70;76.60
30949;BME280;17637;51.984;21.208;2022-09-09T15:19:17;99848.34;;;12.33;76.20
30949;BME280;17637;51.984;21.208;2022-09-09T15:21:44;100045.91;;;13.82;76.26
30949;BME280;17637;51.984;21.208;2022-09-09T15:24:11;99951.09;;;13.16;77.30
30949;BME280;17637;51.984;21.208;2022-09-09T15:26:40;100231.25;;;14.65;77.79
30949;BME280;17637;51.984;21.208;2022-09-09T15:29:07;100245.59;;;14.93;77.36
30949;BME280;17637;51.984;21.208;2022-09-09T15:31:35;99860.03;;;12.45;76.39
30949;BME280;17637;51.984;21.208;2022-09-09T15:34:05;99765.28;;;12.15;75.96